Weather History for Fairmont, MN

Change the Weather History Date:

Wednesday, July 10, 2013

  Actual Average Record
Temperature  
Mean Temperature 70 °F -  
Max Temperature 80 °F 83 °F 99 °F (1966)
Min Temperature 60 °F 62 °F 50 °F (1996)
Cooling Degree Days 5    
Growing Degree Days 20 (Base 50)    
Moisture  
Dew Point 56 °F    
Average Humidity 62    
Maximum Humidity 83    
Minimum Humidity 39    
Precipitation  
Precipitation 0.00 in - - ()
Sea Level Pressure  
Sea Level Pressure 30.07 in    
Wind  
Wind Speed 10 mph (NNW)    
Max Wind Speed 15 mph    
Max Gust Speed 21 mph    
Visibility 10 miles    
Events      
Averages and records for this station are not official NWS values.
T = Trace of Precipitation, MM = Missing Value Source: NWS Daily Summary

Daily Weather History Graph

Daily Weather History Graph

Search for Another Location

Airport:

Trip Planner

Search our weather history database for the weather conditions in past years. The results will help you decide how hot, cold, wet, or windy it might be!

Date:

Astronomy

Jul. 10, 2013 Rise Set
Actual Time 5:46 AM CDT 8:59 PM CDT
Civil Twilight 5:10 AM CDT 9:34 PM CDT
Nautical Twilight 4:25 AM CDT 10:19 PM CDT
Astronomical Twilight 3:30 AM CDT 11:15 PM CDT
Moon 8:13 AM CDT (7/10) 10:02 PM CDT (7/10)
Length of Visible Light 16h 23m
Length of Day
15h 13m
Waxing Crescent, 5% of the Moon is Illuminated
Jul 10
Waxing Crescent
Jul 15
First Quarter
Jul 22
Full
Jul 29
Last Quarter
Aug 6
New

Hourly Weather History & Observations

Time (CDT) Temp. Heat Index Dew Point Humidity Pressure Visibility Wind Dir Wind Speed Gust Speed Precip Events Conditions
12:15 AM 73.4 °F - 64.4 °F 73% 29.99 in 10.0 mi NNW 11.5 mph - N/A   Clear
12:35 AM 71.6 °F - 64.4 °F 78% 29.99 in 10.0 mi NNW 9.2 mph - N/A   Clear
12:55 AM 71.6 °F - 64.4 °F 78% 30.00 in 10.0 mi NNW 12.7 mph - N/A   Clear
1:15 AM 69.8 °F - 62.6 °F 78% 30.00 in 10.0 mi NNW 15.0 mph 18.4 mph N/A   Clear
1:35 AM 69.8 °F - 60.8 °F 73% 30.01 in 10.0 mi NNW 15.0 mph 20.7 mph N/A   Clear
1:55 AM 68.0 °F - 60.8 °F 78% 30.01 in 10.0 mi NNW 11.5 mph - N/A   Clear
2:15 AM 66.2 °F - 60.8 °F 83% 30.02 in 10.0 mi NNW 9.2 mph - N/A   Clear
2:35 AM 66.2 °F - 60.8 °F 83% 30.02 in 10.0 mi NNW 12.7 mph - N/A   Clear
2:55 AM 66.2 °F - 59.0 °F 78% 30.03 in 10.0 mi NNW 10.4 mph - N/A   Clear
3:15 AM 64.4 °F - 59.0 °F 83% 30.03 in 10.0 mi NNW 11.5 mph - N/A   Clear
3:35 AM 64.4 °F - 57.2 °F 77% 30.03 in 10.0 mi NNW 12.7 mph - N/A   Clear
3:55 AM 64.4 °F - 57.2 °F 77% 30.05 in 10.0 mi NNW 10.4 mph - N/A   Clear
4:15 AM 62.6 °F - 57.2 °F 82% 30.05 in 10.0 mi NNW 9.2 mph - N/A   Clear
4:35 AM 62.6 °F - 57.2 °F 82% 30.06 in 10.0 mi NNW 9.2 mph - N/A   Clear
4:55 AM 62.6 °F - 55.4 °F 77% 30.06 in 10.0 mi NNW 8.1 mph - N/A   Clear
5:15 AM 62.6 °F - 55.4 °F 77% 30.07 in 10.0 mi NNW 8.1 mph - N/A   Clear
5:35 AM 62.6 °F - 55.4 °F 77% 30.08 in 10.0 mi NNW 10.4 mph - N/A   Clear
5:55 AM 60.8 °F - 55.4 °F 82% 30.08 in 10.0 mi NNW 5.8 mph - N/A   Clear
6:15 AM 60.8 °F - 55.4 °F 82% 30.08 in 10.0 mi North 8.1 mph - N/A   Clear
6:35 AM 60.8 °F - 55.4 °F 82% 30.08 in 10.0 mi NNW 8.1 mph - N/A   Clear
6:55 AM 62.6 °F - 55.4 °F 77% 30.09 in 10.0 mi NNW 10.4 mph - N/A   Clear
7:15 AM 62.6 °F - 55.4 °F 77% 30.09 in 10.0 mi NNW 9.2 mph - N/A   Clear
7:35 AM 62.6 °F - 55.4 °F 77% 30.08 in 10.0 mi NNW 10.4 mph - N/A   Clear
7:55 AM 64.4 °F - 55.4 °F 73% 30.10 in 10.0 mi NNW 10.4 mph - N/A   Clear
8:15 AM 64.4 °F - 55.4 °F 73% 30.10 in 10.0 mi NNW 12.7 mph 17.3 mph N/A   Clear
8:35 AM 66.2 °F - 55.4 °F 68% 30.10 in 10.0 mi North 12.7 mph 16.1 mph N/A   Clear
8:55 AM 66.2 °F - 55.4 °F 68% 30.10 in 10.0 mi NNW 10.4 mph - N/A   Clear
9:15 AM 66.2 °F - 53.6 °F 64% 30.11 in 10.0 mi North 13.8 mph 19.6 mph N/A   Clear
9:35 AM 68.0 °F - 55.4 °F 64% 30.10 in 10.0 mi North 12.7 mph 18.4 mph N/A   Clear
9:55 AM 69.8 °F - 55.4 °F 60% 30.10 in 10.0 mi North 11.5 mph - N/A   Clear
10:15 AM 69.8 °F - 53.6 °F 56% 30.10 in 10.0 mi North 13.8 mph 17.3 mph N/A   Clear
10:35 AM 71.6 °F - 53.6 °F 53% 30.10 in 10.0 mi NNW 12.7 mph 17.3 mph N/A   Clear
10:55 AM 71.6 °F - 53.6 °F 53% 30.10 in 10.0 mi NNW 10.4 mph - N/A   Clear
11:15 AM 71.6 °F - 53.6 °F 53% 30.10 in 10.0 mi NNW 10.4 mph 17.3 mph N/A   Clear
11:35 AM 73.4 °F - 53.6 °F 50% 30.10 in 10.0 mi North 13.8 mph 18.4 mph N/A   Clear
11:55 AM 73.4 °F - 53.6 °F 50% 30.10 in 10.0 mi North 13.8 mph - N/A   Clear
12:15 PM 73.4 °F - 53.6 °F 50% 30.10 in 10.0 mi NNW 12.7 mph - N/A   Clear
12:35 PM 75.2 °F - 55.4 °F 50% 30.10 in 10.0 mi NNW 9.2 mph 16.1 mph N/A   Clear
12:55 PM 75.2 °F - 55.4 °F 50% 30.10 in 10.0 mi North 10.4 mph 18.4 mph N/A   Clear
1:15 PM 75.2 °F - 55.4 °F 50% 30.10 in 10.0 mi NNW 11.5 mph 18.4 mph N/A   Clear
1:35 PM 75.2 °F - 53.6 °F 47% 30.10 in 10.0 mi North 10.4 mph - N/A   Clear
1:55 PM 77.0 °F - 53.6 °F 44% 30.09 in 10.0 mi NW 11.5 mph - N/A   Clear
2:15 PM 77.0 °F - 53.6 °F 44% 30.09 in 10.0 mi NNW 10.4 mph - N/A   Clear
2:35 PM 77.0 °F - 55.4 °F 47% 30.09 in 10.0 mi North 9.2 mph 17.3 mph N/A   Clear
2:55 PM 78.8 °F - 53.6 °F 42% 30.09 in 10.0 mi NW 11.5 mph - N/A   Clear
3:15 PM 78.8 °F - 53.6 °F 42% 30.09 in 10.0 mi North 6.9 mph - N/A   Clear
3:35 PM 78.8 °F - 53.6 °F 42% 30.09 in 10.0 mi North 9.2 mph - N/A   Clear
3:55 PM 78.8 °F - 55.4 °F 44% 30.09 in 10.0 mi NNW 5.8 mph - N/A   Clear
4:15 PM 78.8 °F - 55.4 °F 44% 30.08 in 10.0 mi North 6.9 mph - N/A   Clear
4:35 PM 78.8 °F - 53.6 °F 42% 30.08 in 10.0 mi North 8.1 mph - N/A   Clear
4:55 PM 78.8 °F - 53.6 °F 42% 30.07 in 10.0 mi North 10.4 mph - N/A   Clear
5:15 PM 78.8 °F - 55.4 °F 44% 30.07 in 10.0 mi NNW 5.8 mph - N/A   Clear
5:35 PM 80.6 °F 80.3 °F 53.6 °F 39% 30.06 in 10.0 mi Calm Calm - N/A   Partly Cloudy
5:55 PM 80.6 °F 80.3 °F 53.6 °F 39% 30.06 in 10.0 mi North 6.9 mph - N/A   Clear
6:15 PM 78.8 °F - 53.6 °F 42% 30.06 in 10.0 mi Calm Calm - N/A   Clear
6:35 PM 78.8 °F - 55.4 °F 44% 30.05 in 10.0 mi NW 4.6 mph - N/A   Clear
6:55 PM 78.8 °F - 53.6 °F 42% 30.05 in 10.0 mi NNW 6.9 mph - N/A   Clear
7:15 PM 77.0 °F - 53.6 °F 44% 30.05 in 10.0 mi North 4.6 mph - N/A   Clear
7:35 PM 77.0 °F - 55.4 °F 47% 30.05 in 10.0 mi North - - N/A   Clear
7:55 PM 75.2 °F - 57.2 °F 53% 30.05 in 10.0 mi North 3.5 mph - N/A   Clear
8:15 PM 73.4 °F - 57.2 °F 57% 30.04 in 10.0 mi NNE 4.6 mph - N/A   Clear
8:35 PM 73.4 °F - 55.4 °F 53% 30.05 in 10.0 mi NNE 3.5 mph - N/A   Clear
8:55 PM 71.6 °F - 57.2 °F 60% 30.05 in 10.0 mi NNE 4.6 mph - N/A   Clear
9:15 PM 69.8 °F - 57.2 °F 64% 30.05 in 10.0 mi Calm Calm - N/A   Clear
9:35 PM 69.8 °F - 59.0 °F 68% 30.06 in 5.0 mi Calm Calm - N/A   Clear
9:55 PM 66.2 °F - 57.2 °F 73% 30.06 in 8.0 mi Calm Calm - N/A   Clear
10:15 PM 66.2 °F - 57.2 °F 73% 30.06 in 10.0 mi Calm Calm - N/A   Clear
10:35 PM 66.2 °F - 57.2 °F 73% 30.07 in 10.0 mi Calm Calm - N/A   Clear
10:55 PM 64.4 °F - 57.2 °F 77% 30.08 in 10.0 mi Calm Calm - N/A   Clear
11:15 PM 64.4 °F - 57.2 °F 77% 30.08 in 10.0 mi Calm Calm - N/A   Clear
11:35 PM 64.4 °F - 55.4 °F 73% 30.09 in 8.0 mi Calm Calm - N/A   Clear
11:55 PM 62.6 °F - 55.4 °F 77% 30.09 in 10.0 mi Calm Calm - N/A   Clear